Date,TemperatureHighF,TemperatureAvgF,TemperatureLowF,DewpointHighF,DewpointAvgF,DewpointLowF,HumidityHigh,HumidityAvg,HumidityLow,PressureMaxIn,PressureMinIn,WindSpeedMaxMPH,WindSpeedAvgMPH,GustSpeedMaxMPH,PrecipitationSumIn
2013-1-1,45,41,37,44,39,32,96,91,84,30.34,30.09,8,2,10,0.01
2013-1-2,40,35,29,33,31,27,93,83,73,30.40,30.32,7,1,8,0.00
2013-1-3,52,38,26,35,30,24,100,75,46,30.53,30.38,10,1,10,0.00
2013-1-4,50,43,36,35,33,30,85,69,49,30.58,30.41,5,0,5,0.00
2013-1-5,51,43,33,41,38,31,95,83,67,30.42,30.27,8,2,11,0.01
2013-1-6,59,41,30,37,31,25,95,71,34,30.45,30.34,7,1,12,0.01
2013-1-7,56,41,26,39,31,22,89,70,45,30.40,30.17,9,2,12,0.00
2013-1-8,48,47,45,47,41,35,96,80,65,30.17,30.01,7,2,10,0.64
2013-1-9,56,55,48,55,54,47,97,96,95,30.18,30.00,15,6,21,1.24
2013-1-10,59,57,55,58,56,54,97,97,96,30.05,29.95,12,5,15,0.26
2013-1-11,71,64,48,62,55,45,88,75,54,30.00,29.81,12,4,18,0.02
2013-1-12,72,56,37,69,53,34,96,92,79,29.97,29.67,10,3,17,0.01
2013-1-13,44,36,30,34,28,22,89,72,54,30.35,29.96,9,3,15,0.01
2013-1-14,45,35,28,30,25,22,79,69,52,30.41,30.28,11,3,15,0.53
2013-1-15,37,33,30,32,27,24,92,79,69,30.31,30.21,7,3,12,0.10
2013-1-16,49,39,28,28,25,22,83,58,38,30.36,30.23,7,1,9,0.09
2013-1-17,61,39,31,38,30,26,87,72,38,30.55,30.30,4,1,12,0.00
2013-1-18,62,50,29,40,36,26,94,62,42,30.57,30.32,12,3,13,0.01
2013-1-19,55,46,42,47,39,36,92,77,60,30.33,30.29,13,4,16,0.00
2013-1-20,69,57,38,52,47,36,95,70,46,30.27,30.11,8,1,10,0.00
2013-1-21,60,46,38,43,36,28,94,68,46,30.34,30.17,9,2,12,0.00
2013-1-22,64,48,33,49,39,26,82,71,57,30.37,30.24,8,1,8,0.00
2013-1-23,71,60,51,57,53,46,92,78,61,30.32,30.16,11,4,16,0.00
2013-1-24,76,63,56,63,58,55,96,85,60,30.23,30.07,10,3,13,0.00
2013-1-25,61,51,46,59,46,40,95,86,76,30.24,30.05,8,2,9,0.00
2013-1-26,51,48,45,49,46,41,100,93,79,30.27,30.15,8,2,9,0.02
2013-1-27,52,49,48,51,48,47,97,97,96,30.16,30.11,8,2,9,0.00
2013-1-28,77,72,67,67,66,64,90,81,66,30.03,29.87,18,6,19,0.00
2013-1-29,77,66,54,67,60,38,93,81,50,29.87,29.46,21,5,25,0.33
2013-1-30,56,48,37,41,32,26,78,55,37,30.19,29.70,15,4,18,0.00
2013-1-31,52,40,35,32,29,25,77,65,45,30.25,30.17,7,1,9,0.00
2013-2-1,61,49,29,38,33,20,74,55,40,30.45,30.22,10,3,13,0.00
2013-2-2,69,55,40,49,40,34,84,61,30,30.36,30.20,9,2,13,0.00
2013-2-3,69,52,35,45,35,31,95,59,26,30.36,30.03,8,2,11,0.00
2013-2-4,63,57,54,56,43,34,86,61,41,30.03,29.91,13,5,19,0.01
2013-2-5,59,56,54,56,55,53,97,95,91,30.02,29.91,4,1,7,0.01
2013-2-6,72,64,54,63,60,52,96,87,66,30.05,29.92,13,4,16,0.00
2013-2-7,78,65,56,62,55,46,95,73,33,30.11,29.82,11,4,19,0.00
2013-2-8,64,53,43,47,38,28,82,60,28,30.29,30.11,9,2,13,0.00
2013-2-9,60,50,46,59,46,38,95,86,71,30.19,29.80,15,6,19,0.00
2013-2-10,68,59,45,64,43,28,96,61,24,30.06,29.69,18,4,28,0.51
2013-2-11,55,50,46,41,36,33,79,57,46,30.20,30.04,11,3,15,0.04
2013-2-12,48,47,44,46,45,39,95,93,82,30.09,29.92,8,2,13,0.04
2013-2-13,57,46,40,42,38,36,92,77,50,30.21,30.07,4,2,13,0.05
2013-2-14,68,55,37,45,40,34,92,58,30,30.16,30.05,8,2,10,0.03
2013-2-15,52,46,33,41,31,20,78,57,32,30.43,30.14,11,3,16,0.03
2013-2-16,56,43,30,36,30,24,92,62,38,30.47,30.23,6,1,8,0.12
2013-2-17,69,55,41,47,36,30,72,51,28,30.23,29.96,20,6,23,0.00
2013-2-18,78,61,50,58,46,34,82,61,31,30.16,29.77,17,6,21,0.00
2013-2-19,61,50,34,36,30,25,84,50,27,30.37,30.15,10,3,15,0.00
2013-2-20,51,44,40,42,38,34,89,80,54,30.26,29.86,16,6,20,0.10
2013-2-21,67,51,41,52,41,35,94,70,37,29.98,29.66,16,4,24,0.05
2013-2-22,50,41,32,39,29,24,84,64,44,30.20,29.96,7,2,11,0.00
2013-2-23,56,42,29,32,29,25,86,63,38,30.15,29.98,9,1,9,0.00
2013-2-24,68,53,36,46,39,30,84,61,34,29.99,29.66,16,5,22,0.00
2013-2-25,56,54,50,46,43,42,86,67,61,29.68,29.57,14,5,16,0.04
2013-2-26,59,47,38,38,35,32,82,65,42,29.95,29.67,7,3,25,0.00
2013-2-27,47,40,36,37,34,31,84,79,67,30.14,29.93,7,2,8,0.00
2013-2-28,60,50,35,33,30,26,80,47,32,30.34,30.20,11,2,14,0.00
2013-3-1,56,44,32,35,31,27,85,63,43,30.35,30.24,9,1,10,0.00
2013-3-2,55,42,31,30,26,23,76,55,31,30.48,30.29,10,2,11,0.00
2013-3-3,69,54,36,46,33,25,70,47,30,30.28,29.84,16,5,19,0.00
2013-3-4,82,66,55,53,49,44,75,56,29,29.84,29.62,23,7,23,0.00
2013-3-5,64,51,42,48,30,22,70,45,25,30.41,29.79,14,3,17,0.00
2013-3-6,62,48,34,29,25,20,68,43,24,30.51,30.25,7,1,10,0.00
2013-3-7,69,56,41,36,30,23,56,39,25,30.30,30.14,15,3,17,0.00
2013-3-8,57,54,53,49,44,36,79,69,47,30.21,30.16,9,4,12,0.00
2013-3-9,69,65,60,64,61,55,94,87,81,30.03,29.68,18,5,21,0.05
2013-3-10,65,51,42,62,42,32,94,73,57,30.12,29.73,15,3,17,0.84
2013-3-11,59,45,34,34,30,24,85,59,27,30.17,30.05,8,1,10,0.00
2013-3-12,67,53,38,40,32,27,72,47,27,30.35,30.09,13,2,13,0.00
2013-3-13,69,55,38,40,37,33,86,54,31,30.49,30.35,9,2,10,0.00
2013-3-14,53,51,49,35,35,34,58,53,50,30.38,30.36,6,2,8,0.00
2013-3-15,78,66,55,57,50,45,87,59,36,30.21,29.92,9,6,20,0.00
2013-3-16,73,66,61,60,55,49,73,68,53,29.91,29.84,16,7,19,0.00
2013-3-17,74,62,0,64,52,0,83,62,50,29.80,29.69,11,3,18,0.00
2013-3-18,70,59,0,53,46,0,82,60,45,30.04,29.66,8,1,12,0.06
2013-3-19,67,56,44,46,40,36,84,57,38,30.17,30.00,13,3,16,0.00
2013-3-20,68,57,46,40,35,30,70,47,25,30.34,30.07,8,2,12,0.00
2013-3-21,53,52,51,34,33,33,52,49,46,30.08,30.00,9,3,11,0.00
2013-3-22,66,50,46,61,46,43,94,89,72,29.90,29.62,8,2,14,0.00
2013-3-23,54,50,46,51,47,45,96,92,84,29.91,29.71,15,2,17,0.08
2013-3-24,50,44,40,48,39,31,93,82,70,30.09,29.82,16,4,17,0.01
2013-3-25,55,47,33,28,23,18,73,39,25,30.46,30.23,13,3,14,0.00
2013-3-26,59,45,32,31,24,20,66,46,30,30.57,30.36,7,1,8,0.00
2013-3-27,69,54,39,43,34,24,61,48,33,30.38,30.14,13,4,21,0.00
2013-3-28,70,62,51,58,53,43,84,72,60,30.27,30.13,12,5,19,0.00
2013-3-29,74,66,61,61,58,56,86,76,60,30.22,30.06,12,5,20,0.00
2013-3-30,75,66,56,66,61,55,95,83,69,30.13,29.91,14,4,14,1.22
2013-3-31,75,66,58,64,59,50,94,78,54,30.01,29.82,15,3,17,0.75
2013-4-1,78,64,48,57,52,47,96,67,39,30.10,29.97,8,1,10,0.01
2013-4-2,72,65,51,64,57,43,87,77,65,30.06,29.93,17,4,22,0.01
2013-4-3,52,49,45,48,45,44,94,88,77,30.20,29.98,13,3,18,0.54
2013-4-4,52,46,42,44,42,40,93,85,74,30.25,30.15,7,2,11,0.03
2013-4-5,68,55,41,51,46,39,93,73,48,30.30,30.07,8,2,10,0.00
2013-4-6,73,64,54,60,54,49,84,70,53,30.08,29.87,21,6,24,0.00
2013-4-7,72,66,61,63,60,56,89,80,72,29.94,29.77,20,6,22,0.00
2013-4-8,76,71,65,66,63,59,85,77,69,29.79,29.69,17,8,23,0.00
2013-4-9,82,74,68,68,66,62,89,76,57,29.75,29.58,18,7,21,0.00
2013-4-10,74,49,41,69,46,37,94,88,81,30.02,29.68,13,3,17,0.58
2013-4-11,63,49,39,43,37,33,86,66,41,30.02,29.86,8,1,11,0.01
2013-4-12,76,60,42,54,46,39,91,63,34,30.05,29.85,7,1,10,0.00
2013-4-13,68,58,52,54,48,45,80,72,60,30.05,29.95,5,1,7,0.00
2013-4-14,79,71,58,66,62,48,85,73,55,29.80,29.38,17,6,21,0.00
2013-4-15,81,72,68,69,66,65,92,84,66,29.76,29.57,18,7,19,0.00
2013-4-16,75,72,72,68,67,65,88,83,77,29.87,29.51,12,6,16,0.00
2013-4-17,84,78,74,71,70,68,89,76,62,29.90,29.15,24,9,29,0.00
2013-4-18,76,57,45,71,49,36,93,76,54,30.19,29.53,20,5,24,1.04
2013-4-19,64,51,40,42,35,30,79,56,29,30.32,30.17,8,1,14,0.00
2013-4-20,71,59,46,43,38,34,68,49,29,30.25,29.80,16,4,18,0.00
2013-4-21,70,62,47,52,49,40,85,63,46,30.26,29.67,13,3,18,0.00
2013-4-22,77,66,53,62,54,46,79,67,57,30.35,28.75,15,4,18,0.00
2013-4-23,68,63,51,63,58,47,91,84,72,30.04,29.37,18,5,18,0.01
2013-4-24,63,54,41,43,39,35,90,60,41,30.36,30.21,8,2,13,0.09
2013-4-25,53,51,50,42,38,36,68,61,58,30.36,30.33,6,1,6,0.00
2013-4-26,76,67,57,68,58,46,85,73,56,30.21,29.47,8,4,17,0.00
2013-4-27,75,70,60,66,61,55,89,75,56,30.11,28.91,7,3,17,0.00
2013-4-28,81,66,51,67,59,49,95,80,61,30.06,27.73,4,2,9,0.00
2013-4-29,84,74,62,67,62,59,92,70,46,29.93,28.34,7,4,15,0.00
2013-4-30,82,72,63,66,62,58,91,74,54,29.86,27.89,7,4,18,0.00
2013-5-1,84,76,64,68,64,61,92,69,48,29.84,28.15,11,4,14,0.00
2013-5-2,67,54,44,62,49,37,92,83,73,30.36,29.29,13,3,18,0.05
2013-5-3,66,49,40,38,36,28,83,63,26,30.34,29.84,10,3,18,0.00
2013-5-4,74,63,41,45,37,26,86,42,18,30.07,28.17,11,2,16,0.00
2013-5-5,69,56,47,49,44,40,82,64,46,30.19,28.90,9,2,11,0.00
2013-5-6,80,64,46,57,51,44,93,67,39,30.14,28.39,10,1,10,0.00
2013-5-7,84,71,54,58,54,49,87,59,35,30.08,24.40,8,2,9,0.00
2013-5-8,84,73,63,62,58,54,76,61,40,32.26,21.00,18,4,19,0.00
2013-5-9,74,69,66,67,64,60,95,86,63,28.98,23.47,14,4,15,0.30
2013-5-10,82,71,64,68,64,60,97,82,57,29.32,23.91,7,1,9,0.02
2013-5-11,69,64,60,60,58,56,88,82,74,29.88,28.23,4,0,6,0.00
2013-5-12,79,70,55,55,43,34,73,39,23,29.86,27.07,7,1,17,0.00
2013-5-13,85,72,58,54,49,42,66,47,31,29.78,22.47,16,5,16,0.00
2013-5-14,85,74,63,64,58,50,83,58,33,25.58,19.86,16,6,19,0.00
2013-5-15,78,71,63,69,66,61,94,85,67,25.15,19.86,17,7,23,0.30
2013-5-16,80,70,63,72,66,61,95,89,76,27.36,23.69,16,4,18,1.16
2013-5-17,88,79,71,76,73,69,96,83,64,24.93,22.36,11,4,14,0.02
2013-5-18,91,81,72,75,72,68,89,74,55,27.77,22.35,17,6,19,0.01
2013-5-19,80,75,71,72,70,68,90,84,78,27.77,24.45,14,6,15,0.00
2013-5-20,88,82,74,74,72,69,85,72,58,24.75,24.75,19,8,23,0.00
2013-5-21,83,72,62,73,67,61,95,85,70,24.75,22.00,18,4,23,0.00
2013-5-22,86,70,57,68,61,56,96,76,42,22.00,22.00,5,1,8,0.01
2013-5-23,77,72,69,73,68,65,95,89,81,29.90,22.00,10,2,12,0.04
2013-5-24,85,80,72,75,73,70,93,79,65,26.10,26.10,10,4,13,0.00
2013-5-25,83,74,68,73,69,64,95,85,67,31.36,28.22,17,3,26,0.13
2013-5-26,73,73,71,71,70,69,94,91,88,28.22,28.22,8,4,11,0.09
2013-5-27,86,80,72,72,70,69,89,72,58,28.22,19.27,15,6,19,0.00
2013-5-28,86,79,72,71,69,66,88,71,54,19.27,19.27,18,7,24,0.00
2013-5-29,83,77,74,72,71,69,89,80,70,19.27,16.96,22,7,24,0.06
2013-5-30,87,80,75,76,73,70,88,79,66,19.82,16.96,20,8,25,0.01
2013-5-31,90,83,77,76,74,72,86,75,58,26.63,19.82,18,7,24,0.00
2013-6-1,86,80,76,76,73,68,90,79,68,32.44,22.85,22,6,24,0.04
2013-6-2,85,76,66,68,59,51,83,60,32,31.68,22.87,9,2,10,0.00
2013-6-3,88,75,62,65,62,57,86,65,40,25.66,18.58,7,2,10,0.00
2013-6-4,90,79,69,72,68,64,85,70,53,18.58,18.58,15,4,18,0.00
2013-6-5,91,81,72,73,70,67,89,72,48,23.00,18.58,19,3,19,0.00
2013-6-6,79,73,67,72,68,65,96,85,69,25.46,23.00,7,1,13,2.00
2013-6-7,85,74,64,66,62,57,92,69,40,25.46,25.46,6,1,9,0.01
2013-6-8,87,74,61,66,62,57,92,67,45,25.46,25.46,11,2,13,0.00
2013-6-9,88,78,69,73,69,64,95,76,55,25.46,18.89,16,2,18,0.96
2013-6-10,95,83,72,75,70,65,92,68,38,28.45,18.89,10,3,12,0.00
2013-6-11,92,82,76,75,73,69,89,74,53,28.45,28.45,14,5,15,0.00
2013-6-12,92,85,76,75,73,71,92,69,52,26.58,16.66,12,5,16,0.00
2013-6-13,83,80,76,74,72,71,84,78,71,26.58,26.58,8,3,12,0.00
2013-6-14,96,89,76,78,74,71,89,63,47,26.58,25.80,6,1,7,0.00
2013-6-15,90,83,74,78,74,69,87,76,64,25.80,16.04,14,3,24,0.00
2013-6-16,94,84,76,77,73,70,90,71,48,18.49,16.04,11,3,12,0.00
2013-6-17,84,78,69,75,72,67,94,80,66,18.49,18.49,13,3,16,0.49
2013-6-18,82,78,72,75,72,69,91,82,73,27.21,21.17,5,1,8,0.00
2013-6-19,90,80,70,77,73,69,95,81,58,27.21,18.49,9,2,15,0.00
2013-6-20,94,84,77,75,72,69,89,69,47,19.00,18.49,12,4,15,0.00
2013-6-21,94,85,77,75,72,69,86,67,45,19.00,18.49,13,5,17,0.00
2013-6-22,93,85,76,75,72,69,84,66,48,21.09,18.49,14,5,17,0.00
2013-6-23,94,85,76,74,71,68,85,65,43,25.90,18.49,14,5,20,0.00
2013-6-24,94,85,77,74,71,68,84,64,45,18.49,18.49,13,5,17,0.00
2013-6-25,95,84,77,75,72,69,84,69,44,18.49,18.49,19,6,21,0.00
2013-6-26,96,88,77,75,73,67,84,61,48,23.34,18.49,19,5,19,0.00
2013-6-27,98,87,79,76,72,68,79,63,40,18.49,18.49,11,3,15,0.00
2013-6-28,104,88,80,75,71,68,73,58,37,18.49,18.49,7,2,10,0.00
2013-6-29,98,85,73,72,67,61,91,58,30,18.49,18.49,9,1,10,0.00
2013-6-30,91,81,71,68,62,57,84,54,33,21.88,16.75,9,1,13,0.00
2013-7-1,90,78,68,65,61,59,78,57,38,18.49,18.49,8,1,11,0.00
2013-7-2,90,77,67,63,59,52,74,56,27,18.49,18.49,6,1,11,0.00
2013-7-3,92,83,61,64,57,51,87,43,25,18.50,18.50,6,1,8,0.00
2013-7-4,95,81,71,68,63,59,73,56,32,18.49,18.49,17,3,17,0.00
2013-7-5,94,78,68,69,65,62,85,66,36,18.49,18.49,8,2,10,0.00
2013-7-6,94,86,74,72,66,62,76,54,38,18.49,18.49,9,3,13,0.00
2013-7-7,95,85,74,74,68,64,80,58,40,18.49,18.49,10,2,13,0.00
2013-7-8,95,85,77,75,72,70,86,67,46,18.49,17.02,10,3,15,0.00
2013-7-9,97,87,78,74,69,64,83,58,35,18.49,17.02,11,4,15,0.00
2013-7-10,100,90,81,76,71,67,79,56,36,18.49,18.49,13,4,13,0.00
2013-7-11,104,89,79,76,72,69,80,59,35,18.49,18.49,14,3,20,0.00
2013-7-12,96,81,73,76,72,70,92,77,47,18.49,18.49,7,1,12,0.00
2013-7-13,100,87,77,72,68,62,79,55,37,0.00,40.00,5,3,13,0.00
2013-7-14,78,73,70,70,67,61,92,82,58,0.00,40.00,3,0,10,0.17
2013-7-15,76,73,68,72,70,66,95,89,83,18.50,18.50,9,2,11,0.18
2013-7-16,90,76,72,75,72,69,95,87,57,18.50,16.58,13,2,18,0.38
2013-7-17,90,78,71,77,72,69,96,82,58,25.80,16.58,12,2,17,0.17
2013-7-18,97,87,71,76,73,70,95,64,47,18.49,16.46,7,1,12,0.00
2013-7-19,92,80,76,77,74,71,92,82,53,19.54,16.46,9,1,11,0.18
2013-7-20,96,81,73,78,73,69,94,80,47,19.54,18.63,10,2,14,0.04
2013-7-21,95,84,74,77,73,70,93,73,47,18.63,18.49,13,4,15,0.00
2013-7-22,96,87,78,76,74,70,89,68,46,22.93,18.49,15,5,18,0.00
2013-7-23,97,88,80,78,74,66,87,65,44,22.93,16.54,14,6,17,0.00
2013-7-24,95,83,74,76,72,68,91,69,51,16.63,16.54,13,3,16,0.07
2013-7-25,98,83,72,77,72,69,93,72,46,22.97,16.63,11,1,11,0.00
2013-7-26,83,80,77,75,73,72,92,78,70,22.97,22.97,7,2,11,0.10
2013-7-27,92,82,72,73,68,65,89,64,44,30.70,18.17,7,2,14,0.00
2013-7-28,92,81,70,72,69,66,90,69,49,30.70,20.98,10,2,13,0.00
2013-7-29,95,86,77,76,72,64,88,67,40,30.99,20.98,13,5,17,0.00
2013-7-30,96,87,79,75,70,62,83,60,42,30.99,22.97,15,5,19,0.00
2013-7-31,101,89,80,76,72,66,79,59,39,32.26,22.97,12,3,15,0.00
2013-8-1,103,90,78,75,73,71,89,61,38,32.26,23.49,8,1,13,0.00
2013-8-2,101,90,80,74,71,68,76,57,36,32.47,18.25,12,4,14,0.00
2013-8-3,100,89,81,74,71,66,73,57,35,27.06,18.25,11,4,15,0.00
2013-8-4,100,89,80,75,72,67,78,59,36,32.35,25.43,11,3,11,0.00
2013-8-5,101,90,82,74,70,64,73,53,34,32.35,22.07,11,4,15,0.00
2013-8-6,101,91,80,73,70,64,75,51,33,22.07,22.07,13,5,15,0.00
2013-8-7,103,91,80,75,71,66,78,54,34,32.43,22.07,14,5,16,0.00
2013-8-8,100,90,80,76,71,67,81,55,36,32.43,20.68,11,4,18,0.00
2013-8-9,102,90,80,74,66,57,72,48,25,18.17,18.17,10,3,14,0.00
2013-8-10,101,88,75,77,72,66,91,62,40,30.32,18.17,7,1,9,0.00
2013-8-11,103,87,77,76,72,66,86,63,32,31.89,30.32,13,2,15,0.00
2013-8-12,94,84,79,75,73,72,81,71,51,32.34,22.97,11,4,13,0.00
2013-8-13,101,86,76,79,74,70,93,70,40,32.33,32.18,13,2,20,0.33
2013-8-14,88,80,75,77,74,69,94,81,66,32.18,23.50,9,2,13,0.08
2013-8-15,90,80,69,69,66,61,84,64,46,31.78,23.50,8,2,15,0.00
2013-8-16,90,78,68,68,65,61,93,67,44,31.78,26.83,11,2,15,0.03
2013-8-17,92,78,62,63,61,59,91,60,34,32.45,18.18,8,1,13,0.00
2013-8-18,94,79,66,68,62,59,87,60,34,32.45,23.14,9,1,13,0.00
2013-8-19,98,83,70,69,64,59,85,55,31,24.27,19.59,9,2,11,0.00
2013-8-20,97,83,69,68,63,60,81,53,32,26.84,19.59,9,2,11,0.00
2013-8-21,96,85,75,72,67,62,78,56,37,29.61,18.17,10,2,14,0.00
2013-8-22,98,87,76,73,70,67,79,58,38,30.86,18.17,10,2,12,0.00
2013-8-23,100,87,77,75,71,66,81,60,35,18.28,18.28,9,2,11,0.00
2013-8-24,100,88,77,74,70,67,79,57,36,32.39,18.28,11,2,13,0.00
2013-8-25,97,87,75,73,69,66,81,57,39,32.38,18.21,13,3,17,0.00
2013-8-26,96,85,73,72,68,62,85,59,33,18.21,18.21,14,3,17,0.00
2013-8-27,94,83,75,73,71,66,89,69,41,18.28,18.21,10,3,14,0.00
2013-8-28,97,85,73,74,69,66,85,61,37,18.28,16.57,9,1,11,0.00
2013-8-29,83,79,76,69,68,67,77,69,60,16.57,16.57,0,0,2,0.00
2013-9-3,102,88,75,75,69,64,81,57,33,29.49,29.49,2,0,8,0.00
2013-9-4,100,87,75,74,69,64,84,58,35,29.49,29.49,4,2,14,0.00
2013-9-5,101,87,74,73,67,62,76,55,30,0.00,40.00,4,1,11,0.00
2013-9-6,102,87,74,73,67,63,72,53,34,0.00,40.00,3,1,13,0.00
2013-9-7,98,87,78,74,68,63,77,56,34,0.00,40.00,5,2,13,0.00
2013-9-8,96,85,73,73,68,63,85,58,36,0.00,40.00,4,2,14,0.00
2013-9-9,94,86,73,72,67,63,84,54,36,25.55,25.55,13,3,14,0.00
2013-9-10,93,83,74,73,67,60,87,62,33,25.55,25.55,12,3,15,0.00
2013-9-11,93,82,72,78,69,63,84,67,45,25.55,25.55,11,1,13,0.11
2013-9-12,96,83,74,74,71,69,87,69,42,25.55,25.55,7,1,10,0.00
2013-9-13,96,85,73,76,71,67,89,65,43,25.55,25.55,13,2,14,0.04
2013-9-14,92,82,72,70,65,60,73,57,41,25.55,0.00,10,3,16,0.00
2013-9-15,96,84,73,72,65,58,62,54,42,0.00,0.00,10,2,11,0.00
2013-9-16,96,85,74,74,68,63,79,57,34,0.00,0.00,9,1,14,0.00
2013-9-17,92,85,77,72,68,62,71,57,38,0.00,0.00,7,1,11,0.00
2013-9-18,93,83,78,73,70,68,72,65,46,28.13,0.00,9,2,11,0.00
2013-9-19,90,82,75,75,72,68,94,73,57,0.00,40.00,4,2,11,0.29
2013-9-20,75,73,70,72,71,66,96,93,85,0.00,40.00,4,2,14,1.42
2013-9-21,84,72,61,65,54,48,86,58,29,16.54,16.54,8,1,11,0.00
2013-9-22,84,70,56,59,55,52,90,62,34,16.54,16.54,11,1,13,0.00
2013-9-23,86,72,59,62,57,54,84,62,36,18.17,16.54,11,2,13,0.00
2013-9-24,96,78,63,70,60,50,92,59,23,22.00,18.17,5,1,9,0.00
2013-9-25,96,76,57,61,55,46,92,55,23,28.59,22.00,5,1,7,0.00
2013-9-26,93,80,67,63,58,54,68,49,31,28.59,28.59,11,2,17,0.00
2013-9-27,87,79,68,73,68,61,82,68,59,28.59,28.59,14,4,16,0.00
2013-9-28,87,76,66,76,71,64,94,84,68,28.59,22.27,14,4,17,0.72
2013-9-29,84,71,64,65,60,51,93,71,35,22.27,17.88,7,1,9,0.00
2013-9-30,86,73,58,68,61,53,95,68,37,17.88,17.88,7,1,10,0.00
2013-10-1,89,79,71,73,70,65,95,76,46,29.69,17.88,13,3,13,0.00
2013-10-2,87,79,73,74,71,69,93,78,57,25.23,25.23,14,4,19,0.00
2013-10-3,87,78,74,74,72,69,91,83,63,25.23,25.23,12,4,14,0.00
2013-10-4,88,81,74,73,71,69,92,71,55,32.46,24.22,14,5,17,0.00
2013-10-5,79,65,52,72,60,44,93,83,60,32.46,17.02,13,3,13,0.19
2013-10-6,76,61,50,52,46,36,94,65,25,17.02,17.02,9,1,14,0.01
2013-10-7,82,59,46,56,46,38,95,71,23,17.02,17.02,5,0,7,0.00
2013-10-8,80,69,49,55,52,45,90,56,35,17.02,17.02,8,2,10,0.00
2013-10-9,81,68,54,60,55,50,89,66,40,17.02,17.02,11,2,11,0.00
2013-10-10,82,71,61,64,59,56,88,66,42,31.72,17.02,12,3,16,0.00
2013-10-11,85,76,67,72,68,62,92,78,63,32.21,24.07,15,5,18,0.00
2013-10-12,93,78,71,76,72,67,92,82,54,32.21,25.79,16,4,26,0.13
2013-10-13,77,71,68,71,68,66,95,89,78,31.57,16.32,11,2,14,0.00
2013-10-14,73,70,68,71,69,66,96,95,91,31.49,16.32,12,4,15,0.70
2013-10-15,78,67,54,74,65,53,95,93,83,25.82,16.03,11,3,14,0.85
2013-10-16,64,56,53,56,53,51,96,89,67,16.03,16.03,10,1,12,0.33
2013-10-17,71,59,47,54,49,44,95,73,39,16.03,16.03,7,0,7,0.00
2013-10-18,71,61,51,58,53,48,93,77,54,16.03,16.03,13,2,13,0.00
2013-10-19,67,54,43,50,43,39,88,69,39,16.03,16.03,7,1,11,0.00
2013-10-20,70,57,43,50,45,41,93,68,40,16.03,16.03,15,3,17,0.00
2013-10-21,59,58,57,54,50,49,84,75,69,16.03,16.03,8,3,9,0.00
2013-10-23,76,70,48,57,54,45,94,59,48,0.00,0.00,4,1,6,0.00
2013-10-24,66,60,53,53,52,49,89,76,62,16.46,16.46,3,1,8,0.00
2013-10-25,67,57,50,48,45,41,84,65,49,0.00,40.00,6,3,16,0.00
2013-10-26,56,54,52,50,48,47,82,80,75,16.43,16.43,5,2,6,0.00
2013-10-27,72,64,59,62,60,58,96,85,68,30.82,30.82,6,0,13,0.00
2013-10-28,77,66,56,68,62,54,96,88,75,30.82,30.82,13,2,13,0.01
2013-10-29,74,71,69,69,67,66,93,90,84,30.82,26.86,13,5,14,0.00
2013-10-30,72,68,66,69,66,63,95,92,84,24.15,18.90,17,6,22,0.17
2013-10-31,76,68,53,69,58,44,97,73,34,21.40,21.39,16,3,22,0.00
2013-11-1,76,62,49,54,50,46,92,68,44,26.68,21.35,12,1,13,0.00
2013-11-2,69,57,45,46,42,35,85,59,31,21.35,21.35,11,1,12,0.00
2013-11-3,65,55,43,48,42,38,85,65,41,21.35,21.35,14,4,21,0.00
2013-11-4,60,58,54,59,54,46,96,87,68,21.35,21.35,13,3,14,0.71
2013-11-5,69,65,60,68,63,59,96,95,94,21.35,21.35,12,4,15,0.32
2013-11-6,70,56,45,68,52,40,96,85,66,25.16,21.35,10,2,13,0.08
2013-11-7,66,50,38,48,42,36,95,77,42,25.16,25.16,4,0,7,0.00
2013-11-8,64,55,42,49,45,40,96,71,42,25.16,25.16,10,2,14,0.00
2013-11-9,66,59,55,52,49,46,80,70,61,25.16,25.16,11,3,14,0.00
2013-11-10,69,57,48,51,48,43,92,74,44,25.16,25.16,7,0,8,0.00
2013-11-11,75,58,45,55,50,44,96,78,49,31.94,23.05,7,1,10,0.00
2013-11-12,60,48,36,57,35,22,94,63,34,31.94,31.94,14,3,18,0.00
2013-11-13,54,40,28,30,26,23,81,58,36,31.94,31.94,8,1,9,0.00
2013-11-14,39,37,35,28,28,26,76,68,60,31.94,31.94,6,1,6,0.00
2013-11-15,69,60,53,59,53,47,86,79,65,31.94,31.94,6,4,14,0.00
2013-11-16,74,69,63,70,64,59,93,86,77,31.94,28.74,10,8,25,0.00
2013-11-17,87,76,63,70,56,40,92,52,33,28.95,21.39,10,3,24,0.00
2013-11-18,71,62,53,41,36,31,52,38,24,21.39,17.17,10,2,13,0.00
2013-11-19,67,59,54,43,36,31,60,44,27,17.17,17.17,15,4,19,0.00
2013-11-20,64,57,45,52,42,34,76,58,47,17.17,17.17,11,4,15,0.01
2013-11-21,72,64,45,69,61,43,95,91,77,32.45,17.17,9,3,17,0.15
2013-11-22,45,38,36,43,36,34,95,93,90,20.67,20.67,14,3,15,0.44
2013-11-23,43,39,36,39,35,31,100,86,69,22.13,20.67,11,2,13,0.03
2013-11-24,41,41,41,31,31,31,69,69,69,22.14,22.13,1,1,1,0.00
2013-11-25,41,41,41,31,31,31,69,69,69,22.14,22.14,1,1,1,0.00
2013-11-26,53,39,0,38,27,0,75,44,49,22.14,22.14,7,2,18,0.00
2013-11-27,48,44,31,33,25,18,60,47,36,22.14,22.14,8,1,11,0.00
2013-11-28,52,46,41,34,27,23,66,48,41,22.14,22.14,9,1,10,0.00
2013-11-29,57,49,42,42,34,29,84,58,42,22.14,22.14,7,1,11,0.00
2013-11-30,64,55,48,54,44,34,82,67,55,22.14,22.14,14,4,17,0.00
2013-12-1,68,61,57,58,55,51,91,82,70,24.18,22.14,12,4,15,0.00
2013-12-2,69,60,46,56,53,45,100,78,54,24.18,24.18,7,1,8,0.00
2013-12-3,73,59,45,51,48,41,97,71,32,31.81,24.18,10,1,12,0.01
2013-12-4,78,61,48,62,52,38,87,73,52,32.10,31.81,13,4,18,0.00
2013-12-5,47,35,30,38,28,24,92,77,61,32.10,17.08,10,3,15,0.14
2013-12-6,33,28,25,31,26,21,93,90,85,18.32,17.08,5,0,7,0.59
2013-12-7,27,24,21,25,21,17,93,89,84,18.33,18.32,0,0,0,0.00
2013-12-8,34,31,26,33,29,24,100,94,93,30.94,18.33,3,0,4,0.08
2013-12-9,33,32,29,32,30,24,95,90,81,32.42,18.32,8,2,11,0.07
2013-12-10,39,29,21,31,25,18,92,83,68,32.42,19.33,6,0,8,0.13
2013-12-11,45,36,25,37,30,22,93,82,67,26.88,19.33,6,1,8,0.14
2013-12-12,52,38,26,36,31,24,93,77,54,26.88,25.09,7,0,9,0.01
2013-12-13,46,43,41,45,39,33,96,86,69,31.01,25.09,11,4,16,0.05
2013-12-14,47,41,33,46,38,28,97,87,72,31.01,31.01,11,2,16,0.00
2013-12-15,60,43,26,38,33,24,95,70,39,31.01,31.01,11,1,11,0.00
2013-12-16,65,50,39,42,37,33,81,62,39,32.31,22.94,11,3,15,0.00
2013-12-17,49,45,39,37,36,34,81,70,64,28.68,28.68,5,1,7,0.00
2013-12-18,68,58,36,48,44,33,94,61,42,28.68,28.68,15,5,19,0.00
2013-12-19,72,61,52,63,56,49,94,83,67,31.52,19.39,21,7,23,0.00
2013-12-20,69,61,39,65,57,38,93,87,77,31.79,16.41,16,4,20,0.00
2013-12-21,54,47,36,53,46,34,100,96,95,28.97,26.17,8,1,12,1.51
2013-12-22,47,38,31,46,33,27,97,83,66,26.44,26.17,9,2,13,0.01
2013-12-23,48,35,26,36,29,23,93,79,59,26.44,26.44,7,1,8,0.00
2013-12-24,30,27,25,27,24,23,92,89,86,26.44,26.44,2,0,4,0.00
2013-12-25,61,46,35,45,38,31,87,74,54,26.63,26.63,10,2,12,0.00
2013-12-26,56,41,31,41,35,29,95,80,54,26.63,26.63,5,0,7,0.00
2013-12-27,59,44,30,44,37,29,96,78,50,26.63,26.63,7,0,11,0.00
2013-12-28,60,48,36,44,39,33,93,73,51,26.63,26.63,11,2,13,0.00
2013-12-29,54,41,33,44,34,25,86,74,62,26.63,26.63,11,2,11,0.00
2013-12-30,46,35,29,28,24,20,84,64,44,26.63,16.40,6,1,9,0.00
2013-12-31,53,40,25,32,28,22,89,65,41,16.40,16.40,10,2,12,0.00
2014-1-1,65,48,36,51,38,28,84,70,52,16.40,16.40,22,6,25,0.00
2014-1-2,44,33,25,28,21,18,80,63,40,16.40,16.40,11,2,17,0.00